Time;durP1;ratioP1;P1;durP2;ratioP2;P2;SDS_P1;SDS_P2;PMS_P1;PMS_P2;Temp;Humidity;BMP_temperature;BMP_pressure;BME280_temperature;BME280_humidity;BME280_pressure;Samples;Min_cycle;Max_cycle;Signal;HPM_P1;HPM_P2
2021/10/19 00:00:59;;;;;;;1.60;1.10;;;21.60;51.20;;;;;;6294860;28;20110;-69
2021/10/19 00:04:00;;;;;;;0.75;0.70;;;21.60;51.20;;;;;;6294393;28;20017;-69
2021/10/19 00:07:00;;;;;;;0.90;0.70;;;21.60;51.20;;;;;;6286139;28;20485;-69
2021/10/19 00:10:01;;;;;;;0.80;0.70;;;21.60;51.20;;;;;;6269444;28;20045;-69
2021/10/19 00:13:01;;;;;;;0.80;0.73;;;21.60;51.20;;;;;;6288759;28;20040;-69
2021/10/19 00:16:06;;;;;;;1.65;0.70;;;21.60;51.20;;;;;;6291306;28;20385;-69
2021/10/19 00:19:06;;;;;;;1.20;0.82;;;21.60;51.20;;;;;;6292540;28;20020;-69
2021/10/19 00:22:07;;;;;;;1.20;0.80;;;21.60;51.20;;;;;;6286129;28;20040;-69
2021/10/19 00:25:10;;;;;;;0.80;0.80;;;21.60;51.30;;;;;;6273960;28;20028;-67
2021/10/19 00:28:11;;;;;;;1.17;0.93;;;21.60;51.20;;;;;;6293224;28;20025;-67
2021/10/19 00:31:11;;;;;;;0.80;0.63;;;21.60;51.30;;;;;;6292770;28;20041;-67
2021/10/19 00:34:12;;;;;;;1.20;0.80;;;21.60;51.20;;;;;;6294020;28;20035;-67
2021/10/19 00:37:13;;;;;;;1.30;0.90;;;21.60;51.30;;;;;;6280015;28;20165;-67
2021/10/19 00:40:14;;;;;;;1.13;0.80;;;21.60;51.30;;;;;;6287358;28;20024;-67
2021/10/19 00:43:15;;;;;;;1.13;0.80;;;21.60;51.30;;;;;;6292417;28;20519;-68
2021/10/19 00:46:16;;;;;;;1.10;0.70;;;21.60;51.30;;;;;;6288277;28;20029;-69
2021/10/19 00:49:16;;;;;;;1.55;0.95;;;21.60;51.30;;;;;;6268116;28;20121;-69
2021/10/19 00:52:19;;;;;;;0.80;0.70;;;21.60;51.30;;;;;;6270674;28;20029;-69
2021/10/19 00:55:19;;;;;;;0.93;0.70;;;21.60;51.30;;;;;;6268261;28;20405;-69
2021/10/19 00:58:20;;;;;;;0.88;0.82;;;21.60;51.30;;;;;;6288248;28;20078;-69
2021/10/19 01:01:21;;;;;;;0.73;0.73;;;21.60;51.30;;;;;;6286524;28;20396;-69
2021/10/19 01:04:22;;;;;;;1.00;0.90;;;21.60;51.30;;;;;;6268603;28;20033;-69
2021/10/19 01:07:23;;;;;;;0.75;0.75;;;21.60;51.40;;;;;;6280136;28;20032;-69
2021/10/19 01:10:24;;;;;;;1.15;0.82;;;21.60;51.30;;;;;;6270288;28;20170;-69
2021/10/19 01:13:26;;;;;;;1.40;0.90;;;21.60;51.30;;;;;;6288438;28;20406;-69
2021/10/19 01:16:27;;;;;;;1.23;0.90;;;21.60;51.40;;;;;;6290240;28;20452;-69
2021/10/19 01:19:27;;;;;;;1.00;0.80;;;21.60;51.30;;;;;;6292359;28;20021;-69
2021/10/19 01:22:28;;;;;;;0.95;0.80;;;21.60;51.40;;;;;;6287409;28;20047;-68
2021/10/19 01:25:32;;;;;;;0.93;0.80;;;21.60;51.40;;;;;;6286059;28;20036;-69
2021/10/19 01:28:35;;;;;;;1.50;0.90;;;21.60;51.40;;;;;;6292237;28;20016;-69
2021/10/19 01:31:35;;;;;;;0.77;0.63;;;21.60;51.40;;;;;;6287640;28;20013;-69
2021/10/19 01:34:36;;;;;;;0.85;0.70;;;21.60;51.40;;;;;;6267669;28;20075;-67
2021/10/19 01:37:37;;;;;;;1.05;0.95;;;21.60;51.40;;;;;;6284271;28;20114;-68
2021/10/19 01:40:38;;;;;;;1.27;1.00;;;21.60;51.40;;;;;;6290919;28;20031;-69
2021/10/19 01:43:38;;;;;;;1.08;0.80;;;21.60;51.40;;;;;;6278526;28;20021;-66
2021/10/19 01:46:39;;;;;;;0.70;0.70;;;21.60;51.40;;;;;;6286834;28;20494;-67
2021/10/19 01:49:39;;;;;;;0.88;0.73;;;21.60;51.40;;;;;;6286987;28;20025;-66
2021/10/19 01:52:40;;;;;;;1.23;1.00;;;21.60;51.40;;;;;;6274443;28;20029;-66
2021/10/19 01:55:41;;;;;;;1.30;0.90;;;21.60;51.40;;;;;;6271190;28;20036;-66
2021/10/19 01:58:42;;;;;;;0.70;0.70;;;21.60;51.50;;;;;;6279870;28;20050;-64
2021/10/19 02:01:43;;;;;;;0.80;0.70;;;21.60;51.50;;;;;;6270635;28;20386;-64
2021/10/19 02:04:43;;;;;;;1.05;0.70;;;21.60;51.50;;;;;;6268663;28;20179;-66
2021/10/19 02:07:44;;;;;;;1.00;0.85;;;21.60;51.50;;;;;;6279001;28;20033;-67
2021/10/19 02:10:44;;;;;;;1.00;0.90;;;21.60;51.50;;;;;;6272417;28;20059;-66
2021/10/19 02:13:45;;;;;;;0.60;0.60;;;21.60;51.50;;;;;;6275025;28;20418;-66
2021/10/19 02:16:45;;;;;;;1.10;0.80;;;21.60;51.50;;;;;;6279076;28;20509;-66
2021/10/19 02:19:46;;;;;;;0.70;0.70;;;21.60;51.50;;;;;;6284261;28;20045;-66
2021/10/19 02:22:47;;;;;;;0.68;0.68;;;21.60;51.50;;;;;;6281905;28;20020;-66
2021/10/19 02:25:47;;;;;;;0.70;0.70;;;21.60;51.50;;;;;;6290413;28;20448;-67
2021/10/19 02:28:48;;;;;;;0.80;0.70;;;21.60;51.50;;;;;;6296427;28;20029;-66
2021/10/19 02:31:49;;;;;;;1.15;0.88;;;21.60;51.50;;;;;;6291647;28;20024;-66
2021/10/19 02:34:49;;;;;;;0.70;0.63;;;21.60;51.50;;;;;;6294428;28;20545;-66
2021/10/19 02:37:53;;;;;;;1.25;0.80;;;21.60;51.60;;;;;;6290656;28;20024;-66
2021/10/19 02:40:54;;;;;;;0.70;0.60;;;21.60;51.60;;;;;;6286655;28;20021;-66
2021/10/19 02:43:54;;;;;;;1.20;0.90;;;21.60;51.50;;;;;;6271868;28;20418;-67
2021/10/19 02:46:55;;;;;;;1.00;0.88;;;21.60;51.50;;;;;;6266717;28;20031;-66
2021/10/19 02:49:55;;;;;;;0.75;0.75;;;21.60;51.60;;;;;;6246649;28;20040;-66
2021/10/19 02:52:56;;;;;;;1.13;0.70;;;21.60;51.60;;;;;;6272571;28;20051;-66
2021/10/19 02:55:56;;;;;;;1.00;0.60;;;21.60;51.60;;;;;;6274578;28;20101;-66
2021/10/19 02:58:57;;;;;;;0.93;0.77;;;21.60;52.20;;;;;;6295703;28;20034;-66
2021/10/19 03:01:57;;;;;;;0.82;0.75;;;21.60;51.60;;;;;;6281873;28;20040;-67
2021/10/19 03:04:58;;;;;;;1.10;0.70;;;21.60;51.60;;;;;;6272343;28;20037;-67
2021/10/19 03:07:58;;;;;;;0.80;0.70;;;21.60;51.60;;;;;;6272027;28;20091;-68
2021/10/19 03:10:59;;;;;;;0.77;0.63;;;21.60;51.60;;;;;;6271070;28;20215;-66
2021/10/19 03:14:00;;;;;;;0.70;0.60;;;21.60;51.60;;;;;;6292658;28;20028;-64
2021/10/19 03:17:00;;;;;;;1.35;0.70;;;21.60;51.60;;;;;;6294697;28;20083;-64
2021/10/19 03:20:01;;;;;;;1.02;0.80;;;21.60;51.60;;;;;;6295407;28;20108;-66
2021/10/19 03:23:02;;;;;;;0.80;0.73;;;21.60;51.70;;;;;;6295045;28;20036;-66
2021/10/19 03:26:03;;;;;;;0.93;0.70;;;21.60;51.60;;;;;;6289185;28;20035;-66
2021/10/19 03:29:03;;;;;;;1.13;1.00;;;21.60;51.60;;;;;;6295180;28;20477;-66
2021/10/19 03:32:04;;;;;;;1.23;0.80;;;21.60;51.70;;;;;;6294325;28;20127;-66
2021/10/19 03:35:05;;;;;;;1.25;0.90;;;21.60;51.70;;;;;;6295466;28;20405;-66
2021/10/19 03:38:05;;;;;;;1.05;0.75;;;21.60;51.70;;;;;;6296479;28;20663;-66
2021/10/19 03:41:07;;;;;;;0.90;0.70;;;21.60;51.70;;;;;;6295923;28;20485;-66
2021/10/19 03:44:08;;;;;;;0.93;0.70;;;21.60;51.70;;;;;;6295647;28;20020;-66
2021/10/19 03:47:09;;;;;;;1.05;0.77;;;21.60;51.70;;;;;;6282100;28;20053;-64
2021/10/19 03:50:11;;;;;;;0.73;0.73;;;21.60;51.70;;;;;;6269845;28;20021;-64
2021/10/19 03:53:13;;;;;;;0.90;0.77;;;21.60;51.70;;;;;;6292794;28;20036;-64
2021/10/19 03:56:13;;;;;;;0.90;0.75;;;21.60;51.70;;;;;;6294440;28;20016;-66
2021/10/19 04:03:25;;;;;;;0.85;0.70;;;21.60;51.70;;;;;;6295244;28;20119;-66
2021/10/19 04:06:27;;;;;;;0.90;0.80;;;21.60;51.70;;;;;;6290341;28;20027;-66
2021/10/19 04:09:28;;;;;;;0.80;0.70;;;21.60;51.70;;;;;;6294203;28;20077;-66
2021/10/19 04:12:29;;;;;;;0.73;0.73;;;21.60;51.70;;;;;;6289949;28;20078;-66
2021/10/19 04:15:30;;;;;;;1.27;0.77;;;21.60;51.70;;;;;;6294082;28;20491;-67
2021/10/19 04:18:30;;;;;;;2.92;0.85;;;21.60;51.70;;;;;;6288607;28;20025;-67
2021/10/19 04:21:31;;;;;;;1.13;0.93;;;21.60;51.70;;;;;;6290705;28;20405;-66
2021/10/19 04:24:31;;;;;;;0.85;0.80;;;21.60;51.70;;;;;;6294568;28;20033;-66
2021/10/19 04:27:33;;;;;;;1.33;0.88;;;21.60;51.70;;;;;;6278586;28;20040;-66
2021/10/19 04:30:34;;;;;;;0.88;0.77;;;21.60;51.70;;;;;;6270053;28;20509;-66
2021/10/19 04:33:34;;;;;;;1.33;0.93;;;21.60;51.70;;;;;;6293705;28;20037;-66
2021/10/19 04:36:35;;;;;;;0.85;0.82;;;21.60;51.70;;;;;;6282153;28;20437;-66
2021/10/19 04:39:36;;;;;;;1.00;0.90;;;21.60;51.70;;;;;;6294550;28;20388;-67
2021/10/19 04:42:37;;;;;;;1.17;0.70;;;21.60;51.70;;;;;;6293421;28;20021;-66
2021/10/19 04:45:38;;;;;;;0.85;0.70;;;21.60;51.70;;;;;;6293259;28;20158;-66
2021/10/19 04:48:38;;;;;;;0.80;0.80;;;21.60;51.70;;;;;;6271706;28;20226;-66
2021/10/19 04:51:39;;;;;;;1.23;0.90;;;21.60;51.70;;;;;;6276629;28;20104;-66
2021/10/19 04:54:40;;;;;;;0.98;0.75;;;21.60;51.80;;;;;;6293652;28;20024;-67
2021/10/19 04:57:40;;;;;;;1.10;0.85;;;21.60;51.70;;;;;;6289906;28;20136;-67
2021/10/19 05:00:43;;;;;;;0.85;0.70;;;21.60;51.70;;;;;;6293132;28;20052;-66
2021/10/19 05:03:46;;;;;;;0.70;0.70;;;21.60;51.70;;;;;;6267158;28;20259;-65
2021/10/19 05:06:47;;;;;;;1.30;0.90;;;21.60;51.70;;;;;;6275797;28;20024;-66
2021/10/19 05:09:47;;;;;;;1.13;0.90;;;21.60;51.70;;;;;;6292327;28;20140;-66
2021/10/19 05:12:48;;;;;;;0.77;0.70;;;21.60;51.70;;;;;;6292927;28;20025;-67
2021/10/19 05:15:49;;;;;;;1.05;0.95;;;21.60;51.70;;;;;;6292625;28;20123;-66
2021/10/19 05:18:51;;;;;;;0.70;0.70;;;21.60;51.80;;;;;;6288860;28;20548;-66
2021/10/19 05:21:51;;;;;;;1.33;1.00;;;21.60;51.70;;;;;;6293039;28;20024;-66
2021/10/19 05:24:52;;;;;;;0.98;0.80;;;21.60;51.80;;;;;;6292833;28;20208;-66
2021/10/19 05:27:53;;;;;;;0.88;0.80;;;21.50;51.70;;;;;;6292265;28;20108;-66
2021/10/19 05:30:53;;;;;;;0.90;0.80;;;21.60;51.80;;;;;;6292260;28;20035;-66
2021/10/19 05:33:54;;;;;;;0.80;0.75;;;21.60;51.80;;;;;;6269270;28;20032;-67
2021/10/19 05:36:54;;;;;;;0.77;0.77;;;21.60;51.80;;;;;;6279202;28;20480;-66
2021/10/19 05:39:56;;;;;;;1.52;0.90;;;21.60;51.80;;;;;;6292479;28;20103;-66
2021/10/19 05:42:56;;;;;;;1.48;0.90;;;21.60;51.80;;;;;;6272594;28;20029;-66
2021/10/19 05:45:57;;;;;;;0.93;0.80;;;21.60;51.80;;;;;;6269774;28;20221;-66
2021/10/19 05:48:57;;;;;;;0.93;0.82;;;21.60;51.80;;;;;;6267925;28;20437;-66
2021/10/19 05:51:59;;;;;;;1.05;0.82;;;21.60;51.80;;;;;;6279954;28;20028;-66
2021/10/19 05:54:59;;;;;;;0.70;0.70;;;21.60;51.80;;;;;;6292302;28;20107;-66
2021/10/19 05:58:00;;;;;;;1.25;0.90;;;21.60;51.80;;;;;;6290579;28;20042;-66
2021/10/19 06:01:00;;;;;;;0.95;0.80;;;21.60;51.80;;;;;;6272552;28;20012;-67
2021/10/19 06:04:01;;;;;;;0.80;0.75;;;21.60;51.80;;;;;;6270257;28;20068;-67
2021/10/19 06:07:02;;;;;;;1.05;0.93;;;21.60;51.80;;;;;;6273952;28;20029;-66
2021/10/19 06:10:04;;;;;;;0.95;0.85;;;21.60;51.80;;;;;;6271375;28;20061;-67
2021/10/19 06:13:04;;;;;;;1.10;1.00;;;21.60;51.80;;;;;;6286438;28;20029;-67
2021/10/19 06:16:05;;;;;;;1.02;0.82;;;21.60;51.80;;;;;;6293536;28;20055;-67
2021/10/19 06:19:05;;;;;;;1.00;0.88;;;21.60;51.80;;;;;;6291393;28;20028;-67
2021/10/19 06:22:06;;;;;;;1.00;0.80;;;21.60;51.80;;;;;;6293312;28;20017;-66
2021/10/19 06:25:07;;;;;;;0.73;0.73;;;21.60;51.80;;;;;;6288444;28;20063;-66
2021/10/19 06:28:08;;;;;;;1.27;1.17;;;21.60;51.80;;;;;;6291545;28;20096;-67
2021/10/19 06:31:09;;;;;;;1.15;0.80;;;21.60;51.80;;;;;;6292775;28;20392;-66
2021/10/19 06:34:10;;;;;;;0.82;0.80;;;21.60;51.80;;;;;;6269607;28;20059;-67
2021/10/19 06:37:11;;;;;;;0.90;0.70;;;21.60;51.80;;;;;;6276072;28;20032;-66
2021/10/19 06:40:12;;;;;;;0.95;0.80;;;21.60;51.90;;;;;;6288152;28;20427;-66
2021/10/19 06:43:14;;;;;;;1.83;0.90;;;21.60;51.80;;;;;;6292188;28;20024;-66
2021/10/19 06:46:14;;;;;;;1.02;0.90;;;21.50;51.70;;;;;;6287461;28;20026;-66
2021/10/19 06:49:17;;;;;;;1.45;1.20;;;21.60;51.90;;;;;;6243799;28;20087;-67
2021/10/19 06:52:17;;;;;;;1.30;0.80;;;21.60;51.80;;;;;;6278055;28;20048;-69
2021/10/19 06:55:22;;;;;;;1.13;0.90;;;21.60;51.80;;;;;;6297614;28;20740;-69
2021/10/19 06:58:24;;;;;;;1.25;0.80;;;21.60;51.80;;;;;;6297534;28;20048;-69
2021/10/19 07:01:25;;;;;;;0.90;0.80;;;21.60;51.80;;;;;;6292944;28;20040;-69
2021/10/19 07:04:26;;;;;;;1.00;0.90;;;21.60;51.90;;;;;;6273155;28;20025;-69
2021/10/19 07:07:26;;;;;;;1.55;1.00;;;21.60;51.90;;;;;;6286116;28;20033;-69
2021/10/19 07:10:27;;;;;;;0.95;0.80;;;21.60;51.80;;;;;;6298104;28;20440;-69
2021/10/19 07:13:27;;;;;;;0.93;0.80;;;21.60;51.80;;;;;;6297190;28;20056;-69
2021/10/19 07:16:28;;;;;;;0.80;0.80;;;21.60;51.80;;;;;;6295304;28;20024;-69
2021/10/19 07:19:28;;;;;;;1.17;0.98;;;21.60;51.80;;;;;;6297856;28;20112;-69
2021/10/19 07:22:31;;;;;;;1.52;1.00;;;21.50;51.80;;;;;;6291398;28;20433;-69
2021/10/19 07:25:31;;;;;;;1.13;1.02;;;21.60;51.90;;;;;;6296948;28;20021;-69
2021/10/19 07:28:32;;;;;;;1.08;0.98;;;21.60;51.80;;;;;;6297240;28;20401;-69
2021/10/19 07:31:33;;;;;;;1.02;0.77;;;21.60;51.90;;;;;;6294389;28;20020;-69
2021/10/19 07:34:33;;;;;;;1.30;0.80;;;21.60;51.90;;;;;;6295943;28;20021;-68
2021/10/19 07:37:38;;;;;;;0.90;0.82;;;21.50;51.80;;;;;;6291345;28;20100;-69
2021/10/19 07:40:40;;;;;;;1.00;0.90;;;21.60;51.90;;;;;;6293623;28;20048;-69
2021/10/19 07:43:40;;;;;;;1.02;0.90;;;21.60;51.90;;;;;;6296621;28;20493;-67
2021/10/19 07:46:41;;;;;;;1.05;0.93;;;21.60;51.90;;;;;;6287745;28;20025;-69
2021/10/19 07:49:41;;;;;;;0.75;0.75;;;21.60;51.90;;;;;;6271733;28;20039;-69
2021/10/19 07:52:42;;;;;;;1.88;1.05;;;21.60;51.90;;;;;;6289488;28;20031;-69
2021/10/19 07:55:44;;;;;;;1.13;0.80;;;21.60;51.90;;;;;;6296526;28;20035;-69
2021/10/19 07:58:44;;;;;;;0.90;0.80;;;21.60;51.90;;;;;;6272961;28;20386;-69
2021/10/19 08:01:45;;;;;;;2.75;1.00;;;21.60;51.90;;;;;;6267421;28;20029;-69
2021/10/19 08:04:46;;;;;;;1.13;1.02;;;21.50;51.80;;;;;;6246516;28;20390;-69
2021/10/19 08:07:49;;;;;;;1.00;0.90;;;21.60;51.90;;;;;;6281953;28;20384;-69
2021/10/19 08:10:49;;;;;;;1.05;0.95;;;21.50;51.80;;;;;;6296655;28;20080;-69
2021/10/19 08:13:53;;;;;;;1.30;1.05;;;21.60;51.90;;;;;;6297147;28;20036;-69
2021/10/19 08:16:54;;;;;;;1.80;1.17;;;21.60;51.90;;;;;;6286111;28;20010;-69
2021/10/19 08:19:59;;;;;;;1.40;1.02;;;21.50;51.80;;;;;;6271642;28;20044;-69
2021/10/19 08:23:00;;;;;;;1.67;1.00;;;21.50;51.80;;;;;;6289343;28;20492;-69
2021/10/19 08:26:01;;;;;;;0.98;0.90;;;21.60;51.90;;;;;;6292950;28;20052;-69
2021/10/19 08:29:03;;;;;;;1.00;0.88;;;21.50;51.90;;;;;;6270363;28;20420;-69
2021/10/19 08:32:04;;;;;;;1.00;0.90;;;21.60;51.90;;;;;;6277554;28;20453;-69
2021/10/19 08:35:06;;;;;;;1.42;1.02;;;21.50;51.80;;;;;;6271092;28;20028;-69
2021/10/19 08:38:07;;;;;;;1.25;0.90;;;21.60;51.90;;;;;;6288488;28;20497;-69
2021/10/19 08:41:07;;;;;;;1.73;1.00;;;21.60;51.90;;;;;;6294948;28;20027;-69
2021/10/19 08:44:08;;;;;;;1.02;0.93;;;21.60;51.90;;;;;;6295685;28;20047;-69
2021/10/19 08:47:08;;;;;;;1.35;0.85;;;21.60;51.90;;;;;;6284433;28;20025;-69
2021/10/19 08:50:11;;;;;;;0.90;0.82;;;21.60;51.90;;;;;;6270691;28;20028;-69
2021/10/19 08:53:12;;;;;;;0.93;0.90;;;21.60;51.90;;;;;;6292927;28;20020;-69
2021/10/19 08:56:13;;;;;;;1.30;1.10;;;21.60;51.90;;;;;;6293598;28;20524;-69
2021/10/19 08:59:20;;;;;;;1.27;0.98;;;21.60;51.90;;;;;;6295549;28;20020;-69
2021/10/19 09:02:36;;;;;;;1.17;0.88;;;21.60;51.90;;;;;;6284287;28;20020;-69
2021/10/19 09:05:37;;;;;;;0.90;0.75;;;21.60;51.90;;;;;;6270647;28;20017;-69
2021/10/19 09:08:39;;;;;;;1.13;0.95;;;21.60;51.90;;;;;;6293260;28;20036;-69
2021/10/19 09:11:45;;;;;;;1.30;1.10;;;21.60;51.90;;;;;;6290651;28;20031;-69
2021/10/19 09:14:46;;;;;;;1.30;0.90;;;21.60;52.00;;;;;;6293162;28;20058;-69
2021/10/19 09:17:46;;;;;;;1.00;0.90;;;21.60;51.90;;;;;;6292073;28;20493;-69
2021/10/19 09:20:53;;;;;;;1.35;0.90;;;21.60;51.90;;;;;;6294899;28;20481;-67
2021/10/19 09:23:54;;;;;;;1.35;1.02;;;21.60;51.90;;;;;;6294735;28;20027;-69
2021/10/19 09:27:02;;;;;;;1.00;0.90;;;21.60;52.00;;;;;;6281795;28;20020;-69
2021/10/19 09:30:08;;;;;;;1.30;0.90;;;21.60;51.90;;;;;;6294652;28;20051;-69
2021/10/19 09:33:15;;;;;;;2.20;0.93;;;21.60;51.90;;;;;;6293764;28;20073;-69
2021/10/19 09:36:15;;;;;;;1.15;0.95;;;21.60;52.00;;;;;;6294309;28;20024;-69
2021/10/19 09:39:37;;;;;;;0.70;0.70;;;21.60;51.90;;;;;;6295034;28;20032;-69
2021/10/19 09:42:37;;;;;;;1.00;0.80;;;21.60;51.90;;;;;;6294302;28;20017;-69
2021/10/19 09:45:43;;;;;;;1.10;0.90;;;21.60;51.90;;;;;;6294559;28;20036;-69
2021/10/19 09:48:46;;;;;;;1.10;0.93;;;21.60;51.90;;;;;;6271037;28;20163;-69
2021/10/19 09:51:47;;;;;;;1.10;1.00;;;21.60;51.90;;;;;;6280387;28;20020;-69
2021/10/19 09:54:52;;;;;;;1.63;0.98;;;21.60;51.90;;;;;;6294675;28;20520;-67
2021/10/19 09:57:53;;;;;;;1.58;1.10;;;21.60;51.90;;;;;;6293613;28;20395;-67
2021/10/19 10:00:54;;;;;;;1.17;0.98;;;21.60;51.90;;;;;;6294425;28;20029;-69
2021/10/19 10:03:56;;;;;;;1.02;0.93;;;21.60;51.90;;;;;;6294154;28;20020;-69
2021/10/19 10:06:57;;;;;;;0.82;0.80;;;21.60;51.90;;;;;;6287092;28;20029;-69
2021/10/19 10:09:59;;;;;;;1.38;1.00;;;21.60;51.90;;;;;;6268958;28;20057;-69
2021/10/19 10:13:01;;;;;;;1.42;1.00;;;21.60;52.00;;;;;;6285005;28;20162;-69
2021/10/19 10:16:09;;;;;;;1.25;0.90;;;21.60;51.90;;;;;;6270332;28;20688;-69
2021/10/19 10:19:12;;;;;;;0.93;0.85;;;21.60;51.90;;;;;;6294400;28;20469;-69
2021/10/19 10:22:18;;;;;;;1.17;0.88;;;21.60;51.90;;;;;;6287178;28;20547;-69
2021/10/19 10:25:21;;;;;;;1.00;0.80;;;21.60;52.00;;;;;;6275830;28;20027;-69
2021/10/19 10:28:34;;;;;;;0.88;0.82;;;21.60;52.00;;;;;;6299071;28;20024;-69
2021/10/19 10:31:46;;;;;;;1.05;0.93;;;21.60;52.00;;;;;;6292902;28;20029;-69
2021/10/19 10:34:47;;;;;;;1.15;1.00;;;21.60;52.00;;;;;;6274665;28;20021;-69
2021/10/19 10:37:51;;;;;;;1.27;0.90;;;21.60;52.00;;;;;;6277699;28;20509;-69
2021/10/19 10:40:56;;;;;;;1.05;0.80;;;21.60;52.00;;;;;;6282110;28;20257;-67
2021/10/19 10:43:58;;;;;;;;;;;21.60;52.00;;;;;;6273370;28;20033;-69
2021/10/19 10:47:04;;;;;;;0.70;0.70;;;21.60;52.00;;;;;;6273687;28;20322;-69
2021/10/19 10:50:05;;;;;;;1.23;1.00;;;21.60;52.00;;;;;;6274318;28;20057;-69
2021/10/19 10:53:06;;;;;;;1.08;0.90;;;21.60;52.00;;;;;;6294316;28;20056;-69
2021/10/19 10:56:09;;;;;;;1.30;0.90;;;21.60;52.00;;;;;;6293881;28;20029;-69
2021/10/19 10:59:09;;;;;;;0.90;0.80;;;21.60;52.00;;;;;;6299152;28;20530;-69
2021/10/19 11:02:10;;;;;;;1.27;1.00;;;21.60;52.00;;;;;;6289010;28;20021;-69
2021/10/19 11:05:13;;;;;;;1.52;0.80;;;21.60;52.00;;;;;;6272817;28;20025;-69
2021/10/19 11:08:23;;;;;;;2.15;0.85;;;21.60;52.00;;;;;;6273474;28;20029;-69
2021/10/19 11:11:24;;;;;;;1.23;1.00;;;21.60;52.00;;;;;;6273736;28;20043;-67
2021/10/19 11:14:26;;;;;;;0.93;0.80;;;21.60;52.00;;;;;;6298247;28;20024;-69
2021/10/19 11:17:26;;;;;;;1.10;1.00;;;21.60;52.00;;;;;;6291269;28;20017;-69
2021/10/19 11:20:27;;;;;;;0.80;0.80;;;21.60;52.00;;;;;;6272664;28;20028;-69
2021/10/19 11:23:27;;;;;;;1.08;0.95;;;21.60;52.00;;;;;;6272296;28;20047;-69
2021/10/19 11:26:28;;;;;;;1.27;1.00;;;21.60;52.00;;;;;;6288579;28;20025;-69
2021/10/19 11:29:36;;;;;;;1.17;1.02;;;21.60;52.00;;;;;;6298675;28;20025;-69
2021/10/19 11:32:38;;;;;;;1.45;1.02;;;21.60;52.00;;;;;;6279838;28;20029;-69
2021/10/19 11:35:39;;;;;;;1.15;0.90;;;21.60;52.00;;;;;;6273635;28;20036;-69
2021/10/19 11:38:47;;;;;;;0.95;0.82;;;21.60;52.00;;;;;;6287070;28;20024;-69
2021/10/19 11:41:56;;;;;;;0.82;0.80;;;21.60;52.00;;;;;;6273516;28;20066;-68
2021/10/19 11:44:57;;;;;;;0.90;0.90;;;21.60;52.00;;;;;;6273519;28;20514;-69
2021/10/19 11:48:00;;;;;;;2.00;1.00;;;21.60;52.00;;;;;;6274284;28;20029;-69
2021/10/19 11:51:01;;;;;;;1.13;1.00;;;21.60;52.00;;;;;;6274204;28;20490;-69
2021/10/19 11:54:03;;;;;;;1.20;1.00;;;21.60;52.00;;;;;;6248662;28;20036;-69
2021/10/19 11:57:09;;;;;;;0.68;0.68;;;21.60;52.00;;;;;;6273805;28;20049;-69
2021/10/19 12:00:11;;;;;;;0.93;0.85;;;21.60;52.00;;;;;;6283771;28;20028;-69
2021/10/19 12:03:11;;;;;;;1.20;0.90;;;21.60;52.00;;;;;;6291470;28;20462;-69
2021/10/19 12:06:13;;;;;;;1.15;0.85;;;21.60;52.00;;;;;;6292744;28;20098;-69
2021/10/19 12:09:21;;;;;;;1.33;1.10;;;21.60;52.00;;;;;;6271456;28;20105;-69
2021/10/19 12:12:25;;;;;;;1.38;0.93;;;21.60;52.00;;;;;;6277713;28;20029;-69
2021/10/19 12:15:28;;;;;;;1.07;0.97;;;21.60;52.00;;;;;;6272647;28;20478;-69
2021/10/19 12:18:41;;;;;;;1.40;0.90;;;21.60;52.00;;;;;;6277872;28;20425;-68
2021/10/19 12:21:49;;;;;;;1.13;0.90;;;21.60;52.00;;;;;;6272751;28;20204;-69
2021/10/19 12:24:51;;;;;;;1.30;1.10;;;21.60;52.00;;;;;;6296916;28;20021;-69
2021/10/19 12:27:56;;;;;;;1.52;1.08;;;21.60;52.00;;;;;;6263080;28;20071;-69
2021/10/19 12:30:59;;;;;;;1.85;0.70;;;21.60;52.10;;;;;;6256879;28;20381;-69
2021/10/19 12:34:05;;;;;;;1.67;1.00;;;21.60;52.10;;;;;;6267716;28;20028;-69
2021/10/19 12:37:07;;;;;;;0.82;0.82;;;21.60;52.10;;;;;;6272199;28;20492;-69
2021/10/19 12:40:12;;;;;;;1.10;1.00;;;21.60;52.10;;;;;;6272574;28;20386;-69
2021/10/19 12:43:13;;;;;;;1.60;0.95;;;21.60;52.10;;;;;;6294133;28;20025;-69
2021/10/19 12:46:19;;;;;;;0.95;0.85;;;21.60;52.10;;;;;;6289663;28;20055;-69
2021/10/19 12:49:21;;;;;;;1.20;1.05;;;21.60;52.10;;;;;;6271338;28;20033;-69
2021/10/19 12:52:22;;;;;;;1.05;0.95;;;21.60;52.10;;;;;;6276007;28;20029;-69
2021/10/19 12:55:22;;;;;;;2.13;1.10;;;21.60;52.10;;;;;;6295573;28;20492;-69
2021/10/19 12:58:23;;;;;;;1.13;0.90;;;21.60;52.10;;;;;;6276310;28;20025;-69
2021/10/19 13:01:25;;;;;;;1.38;0.95;;;21.60;52.10;;;;;;6274283;28;20561;-69
2021/10/19 13:04:26;;;;;;;1.17;0.82;;;21.60;52.10;;;;;;6270762;28;20060;-69
2021/10/19 13:07:26;;;;;;;1.30;0.88;;;21.60;52.10;;;;;;6266711;28;20035;-69
2021/10/19 13:10:27;;;;;;;1.02;0.90;;;21.60;52.10;;;;;;6271241;28;20049;-69
2021/10/19 13:13:27;;;;;;;1.20;0.90;;;21.60;52.10;;;;;;6285348;28;20032;-69
2021/10/19 13:16:29;;;;;;;1.40;1.13;;;21.60;52.10;;;;;;6266875;28;20072;-69
2021/10/19 13:19:29;;;;;;;1.05;0.90;;;21.60;52.10;;;;;;6270795;28;20020;-68
2021/10/19 13:22:30;;;;;;;1.35;0.85;;;21.60;52.10;;;;;;6276975;28;20086;-69
2021/10/19 13:25:31;;;;;;;1.10;0.85;;;21.60;52.10;;;;;;6287782;28;20033;-69
2021/10/19 13:28:32;;;;;;;1.17;0.90;;;21.60;52.10;;;;;;6270916;28;20025;-69
2021/10/19 13:31:32;;;;;;;0.88;0.80;;;21.60;52.10;;;;;;6280192;28;20101;-69
2021/10/19 13:34:33;;;;;;;1.05;0.95;;;21.60;52.10;;;;;;6296212;28;20032;-69
2021/10/19 13:37:34;;;;;;;1.40;0.90;;;21.60;52.10;;;;;;6266894;28;20053;-69
2021/10/19 13:40:35;;;;;;;1.05;0.90;;;21.60;52.10;;;;;;6255361;28;20052;-69
2021/10/19 13:43:36;;;;;;;1.20;0.98;;;21.60;52.20;;;;;;6295617;28;20021;-69
2021/10/19 13:46:36;;;;;;;1.08;0.80;;;21.60;52.10;;;;;;6295660;28;20020;-69
2021/10/19 13:49:37;;;;;;;1.05;0.77;;;21.60;52.10;;;;;;6279353;28;20509;-69
2021/10/19 13:52:39;;;;;;;1.05;0.90;;;21.60;52.10;;;;;;6287805;28;20032;-69
2021/10/19 13:55:40;;;;;;;1.25;0.90;;;21.60;52.20;;;;;;6292915;28;20127;-69
2021/10/19 13:58:41;;;;;;;0.73;0.73;;;21.60;52.20;;;;;;6270817;28;20029;-69
2021/10/19 14:01:41;;;;;;;1.60;0.90;;;21.60;52.20;;;;;;6270657;28;20103;-69
2021/10/19 14:04:42;;;;;;;0.98;0.88;;;21.60;52.20;;;;;;6270845;28;20428;-69
2021/10/19 14:07:43;;;;;;;1.00;0.90;;;21.60;52.20;;;;;;6270261;28;20082;-69
2021/10/19 14:10:43;;;;;;;1.50;1.00;;;21.60;52.20;;;;;;6270491;28;20084;-69
2021/10/19 14:13:44;;;;;;;1.20;0.70;;;21.60;52.20;;;;;;6270419;28;20120;-69
2021/10/19 14:16:45;;;;;;;1.08;0.98;;;21.60;52.20;;;;;;6274490;28;20036;-69
2021/10/19 14:19:49;;;;;;;1.00;0.90;;;21.60;52.20;;;;;;6270480;28;20075;-68
2021/10/19 14:22:49;;;;;;;1.80;1.10;;;21.60;52.20;;;;;;6281043;28;20461;-69
2021/10/19 14:25:52;;;;;;;1.17;0.82;;;21.60;52.20;;;;;;6288642;28;20259;-69
2021/10/19 14:28:53;;;;;;;0.80;0.70;;;21.60;52.20;;;;;;6245696;28;20038;-69
2021/10/19 14:31:54;;;;;;;1.35;0.80;;;21.60;52.20;;;;;;6262904;28;20059;-69
2021/10/19 14:34:57;;;;;;;0.95;0.82;;;21.60;52.20;;;;;;6271194;28;20029;-68
2021/10/19 14:37:58;;;;;;;1.20;0.93;;;21.60;52.20;;;;;;6274370;28;20021;-69
2021/10/19 14:40:59;;;;;;;1.00;0.90;;;21.60;52.20;;;;;;6275347;28;20116;-69
2021/10/19 14:43:59;;;;;;;2.85;0.80;;;21.60;52.20;;;;;;6268717;28;20029;-69
2021/10/19 14:47:00;;;;;;;0.63;0.63;;;21.60;52.20;;;;;;6273680;28;20083;-69
2021/10/19 14:50:02;;;;;;;1.00;0.90;;;21.60;52.20;;;;;;6269724;28;20090;-69
2021/10/19 14:53:02;;;;;;;0.80;0.70;;;21.60;52.20;;;;;;6291053;28;20056;-69
2021/10/19 14:56:03;;;;;;;1.08;0.85;;;21.60;52.20;;;;;;6290090;28;20057;-69
2021/10/19 14:59:05;;;;;;;0.75;0.60;;;21.60;52.20;;;;;;6269822;28;20017;-69
2021/10/19 15:02:07;;;;;;;1.20;0.80;;;21.60;52.20;;;;;;6273122;28;20029;-69
2021/10/19 15:05:07;;;;;;;1.58;0.90;;;21.60;52.20;;;;;;6270118;28;20067;-69
2021/10/19 15:08:08;;;;;;;1.00;0.80;;;21.60;52.20;;;;;;6267783;28;20086;-68
2021/10/19 15:11:08;;;;;;;1.00;0.90;;;21.60;52.30;;;;;;6269620;28;20094;-69
2021/10/19 15:14:09;;;;;;;0.90;0.77;;;21.60;52.20;;;;;;6293198;28;20082;-69
2021/10/19 15:17:10;;;;;;;1.17;0.90;;;21.60;52.20;;;;;;6292592;28;20021;-69
2021/10/19 15:20:12;;;;;;;0.95;0.77;;;21.60;52.20;;;;;;6298801;28;20020;-69
2021/10/19 15:23:13;;;;;;;0.88;0.60;;;21.60;52.20;;;;;;6287844;28;20033;-69
2021/10/19 15:26:14;;;;;;;0.90;0.77;;;21.60;52.20;;;;;;6281171;28;20032;-69
2021/10/19 15:29:15;;;;;;;1.05;0.95;;;21.60;52.30;;;;;;6251388;28;20128;-69
2021/10/19 15:32:16;;;;;;;0.70;0.70;;;21.60;52.20;;;;;;6270762;28;20497;-69
2021/10/19 15:35:16;;;;;;;0.70;0.68;;;21.60;52.30;;;;;;6298879;28;20102;-69
2021/10/19 15:38:17;;;;;;;1.00;0.90;;;21.60;52.20;;;;;;6252307;28;20107;-69
2021/10/19 15:41:17;;;;;;;1.23;0.80;;;21.60;52.30;;;;;;6250881;28;20450;-69
2021/10/19 15:44:18;;;;;;;0.80;0.80;;;21.60;52.30;;;;;;6246121;28;20037;-69
2021/10/19 15:47:18;;;;;;;0.60;0.60;;;21.60;52.30;;;;;;6265287;28;20029;-69
2021/10/19 15:50:21;;;;;;;0.70;0.60;;;21.60;52.30;;;;;;6270972;28;20040;-69